Time;durP1;ratioP1;P1;durP2;ratioP2;P2;SDS_P1;SDS_P2;PMS_P1;PMS_P2;Temp;Humidity;BMP_temperature;BMP_pressure;BME280_temperature;BME280_humidity;BME280_pressure;Samples;Min_cycle;Max_cycle;Signal;HPM_P1;HPM_P2
2022/09/03 00:00:18;;;;;;;;;;;;;;;23.27;60.38;100648.22;7279526;19;152221;-62
2022/09/03 00:03:03;;;;;;;;;;;;;;;23.28;59.86;100642.28;7282574;19;152661;-62
2022/09/03 00:05:57;;;;;;;;;;;;;;;23.26;60.53;100640.97;7273563;19;152585;-62
2022/09/03 00:08:44;;;;;;;;;;;;;;;23.25;60.21;100640.13;7276731;19;154541;-62
2022/09/03 00:11:17;;;;;;;;;;;;;;;23.24;59.92;100641.28;7276229;19;153008;-62
2022/09/03 00:13:49;;;;;;;;;;;;;;;23.25;60.42;100640.13;7278511;19;152351;-62
2022/09/03 00:16:20;;;;;;;;;;;;;;;23.24;60.04;100626.34;7277841;19;151861;-62
2022/09/03 00:18:55;;;;;;;;;;;;;;;23.24;59.77;100624.38;7280830;19;154297;-62
2022/09/03 00:21:42;;;;;;;;;;;;;;;23.22;59.92;100621.03;7277486;19;152949;-62
2022/09/03 00:24:11;;;;;;;;;;;;;;;23.22;60.43;100618.22;7274352;19;154829;-62
2022/09/03 00:26:44;;;;;;;;;;;;;;;23.24;60.20;100612.25;7280773;19;153684;-61
2022/09/03 00:29:18;;;;;;;;;;;;;;;23.23;60.21;100616.25;7279153;19;154509;-63
2022/09/03 00:32:02;;;;;;;;;;;;;;;23.24;60.39;100610.28;7277283;19;152594;-62
2022/09/03 00:34:40;;;;;;;;;;;;;;;23.27;60.60;100608.75;7275517;19;152193;-62
2022/09/03 00:37:09;;;;;;;;;;;;;;;23.26;59.98;100613.56;7278892;19;153084;-62
2022/09/03 00:39:40;;;;;;;;;;;;;;;23.25;60.48;100611.09;7276140;19;154160;-63
2022/09/03 00:42:08;;;;;;;;;;;;;;;23.24;60.57;100610.28;7288273;19;151935;-62
2022/09/03 00:44:44;;;;;;;;;;;;;;;23.23;60.92;100610.59;7285389;19;153639;-62
2022/09/03 00:47:11;;;;;;;;;;;;;;;23.24;60.59;100603.81;7287145;19;153585;-62
2022/09/03 00:49:56;;;;;;;;;;;;;;;23.23;60.63;100602.97;7289552;19;154476;-61
2022/09/03 00:53:01;;;;;;;;;;;;;;;23.23;60.57;100605.78;7280480;19;154735;-60
2022/09/03 00:56:01;;;;;;;;;;;;;;;23.23;60.64;100608.63;7279688;19;152459;-61
2022/09/03 00:58:28;;;;;;;;;;;;;;;23.21;60.69;100610.13;7280063;19;154105;-62
2022/09/03 01:00:55;;;;;;;;;;;;;;;23.22;60.84;100598.50;7281204;19;153360;-61
2022/09/03 01:03:31;;;;;;;;;;;;;;;23.21;61.18;100604.50;7281218;19;157322;-61
2022/09/03 01:06:07;;;;;;;;;;;;;;;23.23;60.97;100607.78;7279662;19;155647;-61
2022/09/03 01:08:40;;;;;;;;;;;;;;;23.25;61.23;100603.47;7283489;19;153595;-61
2022/09/03 01:11:26;;;;;;;;;;;;;;;23.22;60.97;100601.31;7293408;19;152768;-61
2022/09/03 01:14:06;;;;;;;;;;;;;;;23.24;61.07;100607.47;7280748;19;153805;-61
2022/09/03 01:16:44;;;;;;;;;;;;;;;23.24;61.36;100601.81;7286549;19;152189;-61
2022/09/03 01:19:10;;;;;;;;;;;;;;;23.23;61.10;100602.16;7284708;19;152931;-62
2022/09/03 01:21:48;;;;;;;;;;;;;;;23.23;61.31;100596.50;7282961;19;153392;-62
2022/09/03 01:24:30;;;;;;;;;;;;;;;23.24;61.34;100601.00;7282192;19;152716;-62
2022/09/03 01:27:20;;;;;;;;;;;;;;;23.26;61.30;100596.66;7285646;19;153149;-62
2022/09/03 01:29:57;;;;;;;;;;;;;;;23.22;60.74;100595.69;7281680;19;154313;-63
2022/09/03 01:32:30;;;;;;;;;;;;;;;23.20;61.00;100591.56;7283655;19;153210;-62
2022/09/03 01:35:10;;;;;;;;;;;;;;;23.18;61.08;100591.03;7286670;19;154463;-62
2022/09/03 01:37:56;;;;;;;;;;;;;;;23.19;60.72;100584.25;7285138;19;152008;-62
2022/09/03 01:40:30;;;;;;;;;;;;;;;23.22;60.84;100580.75;7282928;19;153571;-62
2022/09/03 01:43:08;;;;;;;;;;;;;;;23.22;60.95;100584.41;7283418;19;153288;-62
2022/09/03 01:45:35;;;;;;;;;;;;;;;23.20;61.20;100589.56;7285701;19;151953;-62
2022/09/03 01:48:02;;;;;;;;;;;;;;;23.23;61.07;100583.25;7284134;19;153305;-63
2022/09/03 01:50:36;;;;;;;;;;;;;;;23.21;61.02;100587.56;7280233;19;153450;-62
2022/09/03 01:53:24;;;;;;;;;;;;;;;23.19;61.59;100585.09;7281777;19;152277;-63
2022/09/03 01:55:55;;;;;;;;;;;;;;;23.19;62.03;100587.91;7282053;19;153870;-62
2022/09/03 01:58:30;;;;;;;;;;;;;;;23.18;61.53;100585.41;7288613;19;152814;-63
2022/09/03 02:01:01;;;;;;;;;;;;;;;23.19;61.67;100582.25;7280566;19;152366;-63
2022/09/03 02:03:39;;;;;;;;;;;;;;;23.19;61.71;100592.69;7279974;19;153382;-63
2022/09/03 02:06:07;;;;;;;;;;;;;;;23.24;62.39;100593.38;7275438;19;154970;-63
2022/09/03 02:08:35;;;;;;;;;;;;;;;23.26;62.28;100590.22;7282786;19;154110;-63
2022/09/03 02:11:05;;;;;;;;;;;;;;;23.25;62.81;100589.38;7281245;19;153608;-63
2022/09/03 02:13:40;;;;;;;;;;;;;;;23.22;62.47;100592.84;7279685;19;152365;-63
2022/09/03 02:16:15;;;;;;;;;;;;;;;23.21;62.53;100596.88;7281686;19;153691;-63
2022/09/03 02:18:45;;;;;;;;;;;;;;;23.23;62.33;100586.06;7281465;19;153297;-63
2022/09/03 02:21:15;;;;;;;;;;;;;;;23.25;63.39;100588.56;7287002;19;152289;-63
2022/09/03 02:23:42;;;;;;;;;;;;;;;23.23;62.52;100597.34;7282323;19;156515;-62
2022/09/03 02:26:10;;;;;;;;;;;;;;;23.24;62.51;100596.19;7282011;19;152649;-62
2022/09/03 02:28:37;;;;;;;;;;;;;;;23.23;63.42;100597.34;7281466;19;152907;-62
2022/09/03 02:31:04;;;;;;;;;;;;;;;23.26;63.85;100599.47;7281325;19;153255;-62
2022/09/03 02:33:41;;;;;;;;;;;;;;;23.27;63.57;100603.13;7278506;19;152486;-61
2022/09/03 02:36:10;;;;;;;;;;;;;;;23.25;63.34;100606.31;7279418;19;153349;-61
2022/09/03 02:38:36;;;;;;;;;;;;;;;23.24;63.48;100612.25;7279959;19;153862;-62
2022/09/03 02:41:03;;;;;;;;;;;;;;;23.25;63.48;100605.47;7281120;19;152915;-61
2022/09/03 02:43:30;;;;;;;;;;;;;;;23.29;63.30;100609.28;7288199;19;153429;-61
2022/09/03 02:46:00;;;;;;;;;;;;;;;23.27;63.53;100611.59;7282520;19;152605;-61
2022/09/03 02:48:27;;;;;;;;;;;;;;;23.27;63.61;100614.41;7281383;19;153459;-61
2022/09/03 02:50:54;;;;;;;;;;;;;;;23.28;63.63;100618.88;7280239;19;154129;-61
2022/09/03 02:53:20;;;;;;;;;;;;;;;23.28;64.05;100618.88;7281440;19;152276;-61
2022/09/03 02:55:47;;;;;;;;;;;;;;;23.25;64.13;100619.56;7282094;19;152688;-61
2022/09/03 02:58:14;;;;;;;;;;;;;;;23.24;63.05;100624.38;7278786;19;154272;-61
2022/09/03 03:00:41;;;;;;;;;;;;;;;23.21;64.18;100619.41;7281044;19;151880;-60
2022/09/03 03:03:07;;;;;;;;;;;;;;;23.22;64.51;100614.56;7280141;19;152472;-61
2022/09/03 03:05:45;;;;;;;;;;;;;;;23.23;64.62;100614.25;7279994;19;153081;-62
2022/09/03 03:08:13;;;;;;;;;;;;;;;23.26;64.33;100615.59;7274781;19;154735;-61
2022/09/03 03:10:43;;;;;;;;;;;;;;;23.27;64.15;100612.41;7280927;19;153743;-62
2022/09/03 03:13:10;;;;;;;;;;;;;;;23.28;63.88;100616.91;7278969;19;151727;-62
2022/09/03 03:15:37;;;;;;;;;;;;;;;23.29;63.91;100612.09;7282980;19;153042;-62
2022/09/03 03:18:04;;;;;;;;;;;;;;;23.27;63.78;100606.78;7280552;19;153752;-62
2022/09/03 03:20:31;;;;;;;;;;;;;;;23.22;64.43;100600.47;7280431;19;153157;-62
2022/09/03 03:23:00;;;;;;;;;;;;;;;23.22;63.74;100603.31;7283094;19;153119;-62
2022/09/03 03:25:27;;;;;;;;;;;;;;;23.23;63.18;100599.31;7289404;19;153704;-62
2022/09/03 03:27:55;;;;;;;;;;;;;;;23.21;63.69;100598.84;7283060;19;154864;-62
2022/09/03 03:30:22;;;;;;;;;;;;;;;23.20;63.47;100598.03;7280197;19;153493;-62
2022/09/03 03:32:52;;;;;;;;;;;;;;;23.22;63.61;100590.03;7281417;19;152271;-62
2022/09/03 03:35:18;;;;;;;;;;;;;;;23.20;63.40;100589.56;7278144;19;152789;-62
2022/09/03 03:37:45;;;;;;;;;;;;;;;23.22;63.33;100586.38;7278261;19;155814;-62
2022/09/03 03:40:12;;;;;;;;;;;;;;;23.20;63.81;100586.75;7279391;19;152323;-63
2022/09/03 03:42:39;;;;;;;;;;;;;;;23.24;64.01;100586.91;7282018;19;152329;-62
2022/09/03 03:45:06;;;;;;;;;;;;;;;23.24;64.45;100586.91;7276747;19;154928;-63
2022/09/03 03:47:33;;;;;;;;;;;;;;;23.25;64.53;100580.09;7291163;19;153239;-62
2022/09/03 03:50:00;;;;;;;;;;;;;;;23.24;64.33;100587.72;7278500;19;153921;-62
2022/09/03 03:52:27;;;;;;;;;;;;;;;23.26;64.32;100590.22;7283870;19;151861;-62
2022/09/03 03:54:53;;;;;;;;;;;;;;;23.27;64.52;100592.69;7276860;19;154627;-62
2022/09/03 03:57:21;;;;;;;;;;;;;;;23.25;64.22;100586.56;7279862;19;154665;-62
2022/09/03 03:59:49;;;;;;;;;;;;;;;23.20;63.93;100586.75;7276538;19;152063;-62
2022/09/03 04:02:16;;;;;;;;;;;;;;;23.22;64.40;100583.56;7280042;19;153653;-62
2022/09/03 04:04:43;;;;;;;;;;;;;;;23.21;63.95;100577.13;7272876;19;153757;-62
2022/09/03 04:07:09;;;;;;;;;;;;;;;23.19;65.08;100573.81;7272011;19;152387;-63
2022/09/03 04:09:36;;;;;;;;;;;;;;;23.22;65.03;100570.31;7286087;19;154584;-63
2022/09/03 04:12:06;;;;;;;;;;;;;;;23.21;64.65;100574.31;7281446;19;152204;-62
2022/09/03 04:14:34;;;;;;;;;;;;;;;23.19;65.01;100571.00;7275704;19;153078;-62
2022/09/03 04:17:01;;;;;;;;;;;;;;;23.19;65.31;100582.25;7285005;19;153462;-62
2022/09/03 04:19:29;;;;;;;;;;;;;;;23.21;65.25;100576.31;7283294;19;153098;-62
2022/09/03 04:21:56;;;;;;;;;;;;;;;23.22;65.13;100581.59;7285287;19;154241;-62
2022/09/03 04:24:22;;;;;;;;;;;;;;;23.21;64.89;100579.94;7285447;19;152502;-63
2022/09/03 04:26:49;;;;;;;;;;;;;;;23.22;65.86;100580.75;7286382;19;152138;-61
2022/09/03 04:29:17;;;;;;;;;;;;;;;23.25;65.45;100574.47;7287545;19;152550;-61
2022/09/03 04:32:51;;;;;;;;;;;;;;;23.26;65.92;100564.84;7293311;19;153605;-63
2022/09/03 04:34:30;;;;;;;;;;;;;;;23.23;65.36;100568.31;7283009;19;152700;-63
2022/09/03 04:36:57;;;;;;;;;;;;;;;23.21;66.32;100565.03;7284556;19;152713;-62
2022/09/03 04:39:24;;;;;;;;;;;;;;;23.21;65.25;100563.03;7282625;19;153501;-63
2022/09/03 04:41:51;;;;;;;;;;;;;;;23.23;65.18;100568.31;7284024;19;152975;-63
2022/09/03 04:44:18;;;;;;;;;;;;;;;23.24;66.18;100561.53;7283374;19;154078;-62
2022/09/03 04:46:47;;;;;;;;;;;;;;;23.22;65.72;100561.84;7286321;19;154163;-62
2022/09/03 04:49:13;;;;;;;;;;;;;;;23.26;65.90;100562.81;7283073;19;152921;-62
2022/09/03 04:51:40;;;;;;;;;;;;;;;23.25;66.37;100575.28;7282390;19;153452;-61
2022/09/03 04:54:08;;;;;;;;;;;;;;;23.24;66.16;100573.63;7292325;19;152735;-63
2022/09/03 04:56:35;;;;;;;;;;;;;;;23.19;66.98;100572.97;7285827;19;153267;-62
2022/09/03 04:59:06;;;;;;;;;;;;;;;23.18;66.79;100572.16;7284172;19;153294;-62
2022/09/03 05:01:34;;;;;;;;;;;;;;;23.21;66.50;100565.84;7286565;19;152156;-62
2022/09/03 05:04:01;;;;;;;;;;;;;;;23.23;66.21;100571.13;7284073;19;153315;-63
2022/09/03 05:06:28;;;;;;;;;;;;;;;23.23;66.33;100571.13;7284189;19;153594;-62
2022/09/03 05:08:56;;;;;;;;;;;;;;;23.20;66.25;100581.09;7281404;19;153387;-63
2022/09/03 05:11:23;;;;;;;;;;;;;;;23.22;66.32;100583.56;7281783;19;154625;-62
2022/09/03 05:13:51;;;;;;;;;;;;;;;23.22;65.81;100584.41;7283250;19;152845;-62
2022/09/03 05:16:18;;;;;;;;;;;;;;;23.19;65.53;100579.44;7291249;19;152674;-62
2022/09/03 05:18:46;;;;;;;;;;;;;;;23.21;65.97;100574.31;7285647;19;152217;-62
2022/09/03 05:21:13;;;;;;;;;;;;;;;23.21;66.14;100579.13;7280701;19;153985;-62
2022/09/03 05:23:41;;;;;;;;;;;;;;;23.19;65.69;100571.00;7282170;19;153678;-63
2022/09/03 05:26:16;;;;;;;;;;;;;;;23.17;65.80;100566.88;7282025;19;153536;-62
2022/09/03 05:28:43;;;;;;;;;;;;;;;23.19;65.49;100568.16;7283847;19;153426;-63
2022/09/03 05:31:19;;;;;;;;;;;;;;;23.17;66.16;100567.66;7285622;19;153414;-62
2022/09/03 05:33:47;;;;;;;;;;;;;;;23.22;66.53;100573.13;7285650;19;151902;-62
2022/09/03 05:36:15;;;;;;;;;;;;;;;23.19;66.78;100571.00;7288515;19;153891;-62
2022/09/03 05:38:42;;;;;;;;;;;;;;;23.20;66.88;100564.19;7283420;19;151977;-62
2022/09/03 05:41:09;;;;;;;;;;;;;;;23.18;66.57;100569.31;7282706;19;153691;-62
2022/09/03 05:43:36;;;;;;;;;;;;;;;23.22;66.61;100570.31;7282843;19;153678;-63
2022/09/03 05:46:08;;;;;;;;;;;;;;;23.20;66.50;100572.66;7284463;19;153201;-62
2022/09/03 05:48:36;;;;;;;;;;;;;;;23.17;66.60;100573.31;7283448;19;153461;-62
2022/09/03 05:51:04;;;;;;;;;;;;;;;23.19;67.57;100579.44;7279248;19;153479;-62
2022/09/03 05:53:32;;;;;;;;;;;;;;;23.20;66.99;100583.94;7285218;19;151770;-62
2022/09/03 05:56:00;;;;;;;;;;;;;;;23.18;67.30;100577.78;7282464;19;152944;-63
2022/09/03 05:58:30;;;;;;;;;;;;;;;23.22;67.22;100583.56;7292102;19;153194;-62
2022/09/03 06:00:57;;;;;;;;;;;;;;;23.22;67.17;100580.75;7280102;19;153493;-62
2022/09/03 06:03:24;;;;;;;;;;;;;;;23.21;67.43;100577.13;7281826;19;153189;-62
2022/09/03 06:05:52;;;;;;;;;;;;;;;23.17;68.00;100575.31;7278134;19;152498;-64
2022/09/03 06:08:19;;;;;;;;;;;;;;;23.10;66.61;100580.63;7278596;19;155434;-65
2022/09/03 06:10:46;;;;;;;;;;;;;;;23.03;66.93;100592.41;7277507;19;153574;-64
2022/09/03 06:13:13;;;;;;;;;;;;;;;23.04;66.87;100592.06;7282966;19;153182;-64
2022/09/03 06:15:40;;;;;;;;;;;;;;;22.96;66.99;100590.09;7280272;19;152351;-65
2022/09/03 06:18:06;;;;;;;;;;;;;;;22.94;67.24;100595.22;7282212;19;153948;-64
2022/09/03 06:20:33;;;;;;;;;;;;;;;22.88;66.98;100593.75;7288924;19;152350;-65
2022/09/03 06:23:03;;;;;;;;;;;;;;;22.89;66.98;100592.59;7282966;19;153334;-64
2022/09/03 06:25:30;;;;;;;;;;;;;;;22.82;67.01;100595.09;7281661;19;153985;-64
2022/09/03 06:27:57;;;;;;;;;;;;;;;22.83;67.60;100595.91;7285805;19;152769;-64
2022/09/03 06:30:25;;;;;;;;;;;;;;;22.81;66.93;100596.25;7282970;19;155039;-63
2022/09/03 06:32:52;;;;;;;;;;;;;;;22.77;67.42;100586.78;7285479;19;152328;-64
2022/09/03 06:35:19;;;;;;;;;;;;;;;22.81;67.62;100593.41;7276053;19;153021;-64
2022/09/03 06:37:46;;;;;;;;;;;;;;;22.75;67.68;100596.75;7280452;19;154021;-63
2022/09/03 06:40:13;;;;;;;;;;;;;;;22.79;67.43;100592.09;7280607;19;153451;-63
2022/09/03 06:42:43;;;;;;;;;;;;;;;22.81;67.50;100592.59;7289492;19;153485;-64
2022/09/03 06:45:11;;;;;;;;;;;;;;;22.72;68.02;100600.22;7280315;19;154225;-64
2022/09/03 06:47:38;;;;;;;;;;;;;;;22.72;67.69;100597.41;7284770;19;153640;-63
2022/09/03 06:50:04;;;;;;;;;;;;;;;22.73;68.53;100597.06;7279254;19;154052;-64
2022/09/03 06:52:31;;;;;;;;;;;;;;;22.65;68.25;100602.69;7284332;19;152868;-63
2022/09/03 06:54:58;;;;;;;;;;;;;;;22.70;68.35;100597.75;7281140;19;153544;-63
2022/09/03 06:57:25;;;;;;;;;;;;;;;22.73;67.76;100604.69;7282558;19;153948;-64
2022/09/03 06:59:54;;;;;;;;;;;;;;;22.70;68.27;100616.63;7277715;19;154304;-64
2022/09/03 07:02:21;;;;;;;;;;;;;;;22.69;68.61;100617.75;7282119;19;152429;-64
2022/09/03 07:04:48;;;;;;;;;;;;;;;22.60;68.57;100612.97;7282206;19;154893;-64
2022/09/03 07:07:15;;;;;;;;;;;;;;;22.65;68.81;100611.13;7282955;19;152250;-64
2022/09/03 07:09:42;;;;;;;;;;;;;;;22.58;69.12;100618.06;7275261;19;153822;-64
2022/09/03 07:12:15;;;;;;;;;;;;;;;22.67;69.00;100615.25;7278908;19;152475;-63
2022/09/03 07:14:42;;;;;;;;;;;;;;;22.66;69.12;100602.34;7279088;19;151923;-62
2022/09/03 07:17:09;;;;;;;;;;;;;;;22.74;68.81;100612.00;7282371;19;154523;-62
2022/09/03 07:19:35;;;;;;;;;;;;;;;22.74;68.67;100604.38;7277497;19;154221;-63
2022/09/03 07:22:02;;;;;;;;;;;;;;;22.72;69.29;100615.13;7280476;19;153102;-62
2022/09/03 07:24:29;;;;;;;;;;;;;;;22.74;68.57;100612.00;7280543;19;153612;-63
2022/09/03 07:26:56;;;;;;;;;;;;;;;22.75;69.04;100622.94;7290928;19;153426;-62
2022/09/03 07:29:23;;;;;;;;;;;;;;;22.77;69.54;100616.94;7279659;19;154411;-63
2022/09/03 07:31:50;;;;;;;;;;;;;;;22.77;68.72;100620.59;7283344;19;152488;-63
2022/09/03 07:34:19;;;;;;;;;;;;;;;22.74;68.32;100623.25;7278633;19;153776;-63
2022/09/03 07:36:49;;;;;;;;;;;;;;;22.73;68.36;100628.06;7278370;19;153388;-63
2022/09/03 07:39:17;;;;;;;;;;;;;;;22.72;67.94;100626.41;7282483;19;153205;-63
2022/09/03 07:41:44;;;;;;;;;;;;;;;22.73;67.77;100624.41;7283211;19;152683;-61
2022/09/03 07:44:18;;;;;;;;;;;;;;;22.73;68.28;100625.25;7280626;19;153770;-62
2022/09/03 07:46:46;;;;;;;;;;;;;;;22.74;67.72;100632.53;7290098;19;152593;-61
2022/09/03 07:49:13;;;;;;;;;;;;;;;22.76;67.89;100633.03;7278522;19;152726;-62
2022/09/03 07:51:40;;;;;;;;;;;;;;;22.78;67.91;100629.88;7283269;19;151807;-62
2022/09/03 07:54:09;;;;;;;;;;;;;;;22.77;67.63;100629.06;7280566;19;152337;-61
2022/09/03 07:56:37;;;;;;;;;;;;;;;22.78;67.85;100633.53;7279202;19;153763;-61
2022/09/03 07:59:04;;;;;;;;;;;;;;;22.82;68.28;100626.06;7282159;19;152097;-64
2022/09/03 08:01:31;;;;;;;;;;;;;;;22.96;66.86;100628.72;7282887;19;153037;-65
2022/09/03 08:03:59;;;;;;;;;;;;;;;22.80;66.48;100636.84;7279990;19;154368;-64
2022/09/03 08:06:27;;;;;;;;;;;;;;;22.79;66.61;100643.66;7280076;19;152661;-64
2022/09/03 08:08:58;;;;;;;;;;;;;;;22.79;66.16;100643.66;7288425;19;152091;-64
2022/09/03 08:11:31;;;;;;;;;;;;;;;22.73;66.37;100641.31;7276668;19;153461;-64
2022/09/03 08:14:02;;;;;;;;;;;;;;;22.73;65.62;100632.84;7279729;19;152649;-64
2022/09/03 08:16:29;;;;;;;;;;;;;;;22.65;65.69;100640.13;7279278;19;153296;-64
2022/09/03 08:18:56;;;;;;;;;;;;;;;22.77;64.88;100651.59;7280631;19;152000;-64
2022/09/03 08:21:24;;;;;;;;;;;;;;;22.74;65.14;100654.25;7278140;19;152579;-64
2022/09/03 08:23:53;;;;;;;;;;;;;;;22.70;64.82;100662.53;7280604;19;153347;-64
2022/09/03 08:26:20;;;;;;;;;;;;;;;22.73;64.73;100655.38;7279151;19;152498;-64
2022/09/03 08:28:48;;;;;;;;;;;;;;;22.73;64.48;100666.66;7280541;19;152047;-65
2022/09/03 08:31:14;;;;;;;;;;;;;;;22.73;63.59;100672.28;7287446;19;155562;-64
2022/09/03 08:33:43;;;;;;;;;;;;;;;22.81;62.67;100661.03;7281806;19;153746;-64
2022/09/03 08:36:24;;;;;;;;;;;;;;;22.78;62.79;100666.50;7275180;19;152843;-64
2022/09/03 08:38:53;;;;;;;;;;;;;;;22.78;62.73;100666.50;7280819;19;152231;-64
2022/09/03 08:41:30;;;;;;;;;;;;;;;22.76;62.88;100657.56;7279012;19;153585;-65
2022/09/03 08:44:00;;;;;;;;;;;;;;;22.78;62.90;100661.69;7276113;19;152235;-64
2022/09/03 08:46:40;;;;;;;;;;;;;;;22.77;62.86;100659.19;7280998;19;152284;-63
2022/09/03 08:49:09;;;;;;;;;;;;;;;22.79;62.52;100660.53;7277999;19;154146;-64
2022/09/03 08:51:39;;;;;;;;;;;;;;;22.74;62.82;100669.16;7278120;19;154073;-64
2022/09/03 08:54:08;;;;;;;;;;;;;;;22.78;62.70;100663.69;7287335;19;152559;-64
2022/09/03 08:56:37;;;;;;;;;;;;;;;22.74;62.56;100669.16;7273577;19;153379;-64
2022/09/03 08:59:04;;;;;;;;;;;;;;;22.75;62.48;100670.81;7276829;19;152651;-64
2022/09/03 09:01:30;;;;;;;;;;;;;;;22.66;63.04;100678.41;7282768;19;153656;-64
2022/09/03 09:04:16;;;;;;;;;;;;;;;22.66;63.35;100669.13;7283389;19;154426;-64
2022/09/03 09:06:51;;;;;;;;;;;;;;;22.70;63.22;100673.78;7287493;19;152539;-64
2022/09/03 09:09:32;;;;;;;;;;;;;;;22.69;63.11;100671.25;7284526;19;153732;-64
2022/09/03 09:12:22;;;;;;;;;;;;;;;22.69;63.44;100674.09;7280988;19;153545;-64
2022/09/03 09:15:01;;;;;;;;;;;;;;;22.71;63.73;100674.63;7281695;19;155315;-64
2022/09/03 09:17:31;;;;;;;;;;;;;;;22.80;63.15;100667.84;7288387;19;154281;-64
2022/09/03 09:20:08;;;;;;;;;;;;;;;22.78;63.13;100663.69;7281753;19;152127;-64
2022/09/03 09:22:40;;;;;;;;;;;;;;;22.79;63.35;100666.19;7287752;19;152618;-64
2022/09/03 09:25:15;;;;;;;;;;;;;;;22.80;63.05;100655.75;7283723;19;153806;-64
2022/09/03 09:28:02;;;;;;;;;;;;;;;22.78;62.99;100658.88;7284965;19;153063;-64
2022/09/03 09:30:30;;;;;;;;;;;;;;;22.80;63.14;100667.00;7286073;19;153000;-64
2022/09/03 09:32:59;;;;;;;;;;;;;;;22.82;62.69;100664.69;7286165;19;153445;-64
2022/09/03 09:35:26;;;;;;;;;;;;;;;22.86;62.71;100665.66;7280821;19;151855;-64
2022/09/03 09:37:54;;;;;;;;;;;;;;;22.87;62.79;100664.50;7286838;19;153429;-64
2022/09/03 09:40:24;;;;;;;;;;;;;;;22.87;63.02;100665.34;7290537;19;152108;-64
2022/09/03 09:43:01;;;;;;;;;;;;;;;22.86;62.69;100668.47;7284422;19;153600;-64
2022/09/03 09:45:29;;;;;;;;;;;;;;;;;;7283672;19;154138;-64
2022/09/03 09:47:58;;;;;;;;;;;;;;;22.90;62.59;100670.31;7285459;19;156894;-64
2022/09/03 09:50:25;;;;;;;;;;;;;;;22.91;62.38;100668.31;7278792;19;153298;-64
2022/09/03 09:53:07;;;;;;;;;;;;;;;22.91;62.53;100665.50;7284970;19;153309;-64
2022/09/03 09:55:34;;;;;;;;;;;;;;;22.92;62.42;100670.81;7235603;19;160639;-65
2022/09/03 09:58:10;;;;;;;;;;;;;;;22.93;62.72;100666.84;7271820;19;153743;-64
2022/09/03 10:00:41;;;;;;;;;;;;;;;22.98;62.09;100668.66;7288646;19;153871;-64
2022/09/03 10:03:10;;;;;;;;;;;;;;;23.02;62.23;100662.03;7283505;19;154716;-64
2022/09/03 10:05:38;;;;;;;;;;;;;;;23.00;62.16;100671.97;7277199;19;153901;-65
2022/09/03 10:08:16;;;;;;;;;;;;;;;22.99;61.91;100659.03;7282522;19;152273;-64
2022/09/03 10:10:50;;;;;;;;;;;;;;;23.00;62.18;100671.97;7283751;19;153655;-64
2022/09/03 10:13:18;;;;;;;;;;;;;;;22.97;62.14;100673.47;7275290;19;154320;-64
2022/09/03 10:16:22;;;;;;;;;;;;;;;23.03;61.80;100676.97;7282769;19;152571;-64
2022/09/03 10:19:16;;;;;;;;;;;;;;;23.00;61.76;100669.16;7277901;19;154290;-64
2022/09/03 10:22:06;;;;;;;;;;;;;;;23.00;61.92;100666.34;7278643;19;152286;-64
2022/09/03 10:25:00;;;;;;;;;;;;;;;23.00;61.67;100661.53;7290155;19;152228;-64
2022/09/03 10:27:53;;;;;;;;;;;;;;;23.01;61.87;100659.53;7282283;19;155241;-64
2022/09/03 10:30:46;;;;;;;;;;;;;;;23.00;61.52;100666.34;7280836;19;152666;-64
2022/09/03 10:33:17;;;;;;;;;;;;;;;23.00;61.44;100655.06;7282419;19;152814;-64
2022/09/03 10:36:01;;;;;;;;;;;;;;;23.00;61.68;100655.06;7278849;19;154257;-64
2022/09/03 10:38:31;;;;;;;;;;;;;;;23.02;61.49;100658.38;7283231;19;153718;-64
2022/09/03 10:41:07;;;;;;;;;;;;;;;23.04;61.67;100654.06;7282433;19;152610;-64
2022/09/03 10:43:43;;;;;;;;;;;;;;;23.07;61.40;100660.22;7282467;19;153192;-64
2022/09/03 10:46:14;;;;;;;;;;;;;;;23.08;60.57;100656.25;7283104;19;152100;-64
2022/09/03 10:48:51;;;;;;;;;;;;;;;23.08;60.64;100657.03;7289904;19;153618;-64
2022/09/03 10:51:33;;;;;;;;;;;;;;;23.11;60.52;100650.75;7279958;19;152052;-64
2022/09/03 10:53:59;;;;;;;;;;;;;;;23.11;60.89;100664.84;7278242;19;155146;-64
2022/09/03 10:56:30;;;;;;;;;;;;;;;23.10;61.25;100659.53;7280631;19;153714;-64
2022/09/03 10:59:00;;;;;;;;;;;;;;;23.09;60.90;100658.69;7279163;19;152217;-64
2022/09/03 11:01:26;;;;;;;;;;;;;;;23.12;61.33;100666.50;7282018;19;153990;-64
2022/09/03 11:03:56;;;;;;;;;;;;;;;23.16;61.02;100661.88;7274738;19;154278;-64
2022/09/03 11:06:25;;;;;;;;;;;;;;;23.18;60.87;100656.72;7279655;19;153780;-64
2022/09/03 11:09:01;;;;;;;;;;;;;;;23.19;60.38;100657.53;7283586;19;153488;-64
2022/09/03 11:11:43;;;;;;;;;;;;;;;23.23;60.74;100658.53;7284915;19;153404;-64
2022/09/03 11:14:13;;;;;;;;;;;;;;;23.25;60.87;100659.88;7275680;19;151908;-64
2022/09/03 11:16:57;;;;;;;;;;;;;;;23.26;60.65;100650.22;7277724;19;154049;-64
2022/09/03 11:19:32;;;;;;;;;;;;;;;23.27;60.65;100663.16;7279181;19;152994;-64
2022/09/03 11:21:59;;;;;;;;;;;;;;;23.31;60.38;100650.03;7283293;19;152679;-64
2022/09/03 11:24:29;;;;;;;;;;;;;;;23.34;60.41;100646.56;7276269;19;154412;-64
2022/09/03 11:27:01;;;;;;;;;;;;;;;23.35;60.64;100659.50;7281805;19;152983;-64
2022/09/03 11:29:43;;;;;;;;;;;;;;;23.38;59.92;100649.56;7278761;19;154465;-64
2022/09/03 11:32:39;;;;;;;;;;;;;;;23.38;60.18;100649.56;7281954;19;153773;-64
2022/09/03 11:35:14;;;;;;;;;;;;;;;23.37;60.33;100648.72;7285123;19;151943;-64
2022/09/03 11:37:49;;;;;;;;;;;;;;;23.37;60.24;100642.25;7279381;19;154324;-64
2022/09/03 11:40:17;;;;;;;;;;;;;;;23.34;60.31;100642.94;7281113;19;152605;-64
2022/09/03 11:42:44;;;;;;;;;;;;;;;23.37;60.07;100645.06;7282025;19;152574;-64
2022/09/03 11:45:35;;;;;;;;;;;;;;;23.35;60.00;100642.56;7277956;19;153989;-64
2022/09/03 11:48:15;;;;;;;;;;;;;;;23.37;60.33;100645.06;7280556;19;152792;-64
2022/09/03 11:50:50;;;;;;;;;;;;;;;23.36;59.79;100638.59;7278383;19;153635;-64
2022/09/03 11:53:17;;;;;;;;;;;;;;;23.35;60.12;100642.56;7277825;19;154358;-64
2022/09/03 11:55:54;;;;;;;;;;;;;;;23.36;59.68;100643.41;7289251;19;152391;-63
2022/09/03 11:58:24;;;;;;;;;;;;;;;23.45;59.59;100625.34;7274923;19;152694;-63
2022/09/03 12:00:53;;;;;;;;;;;;;;;23.44;59.26;100637.78;7280693;19;152708;-63
2022/09/03 12:03:27;;;;;;;;;;;;;;;23.42;59.60;100625.16;7281701;19;152987;-63
2022/09/03 12:05:54;;;;;;;;;;;;;;;23.39;59.50;100635.09;7275027;19;155051;-63
2022/09/03 12:08:40;;;;;;;;;;;;;;;23.41;59.48;100629.97;7280377;19;152217;-63
2022/09/03 12:11:26;;;;;;;;;;;;;;;23.41;59.60;100629.97;7278601;19;154535;-63
2022/09/03 12:13:57;;;;;;;;;;;;;;;23.40;59.40;100631.13;7278084;19;152724;-63
2022/09/03 12:16:47;;;;;;;;;;;;;;;23.44;59.38;100636.94;7275907;19;152224;-63
2022/09/03 12:19:34;;;;;;;;;;;;;;;23.42;59.59;100636.44;7280919;19;154022;-64
2022/09/03 12:22:04;;;;;;;;;;;;;;;23.43;59.41;100635.28;7279283;19;152639;-63
2022/09/03 12:24:36;;;;;;;;;;;;;;;23.42;59.46;100637.25;7278837;19;152151;-63
2022/09/03 12:27:04;;;;;;;;;;;;;;;23.45;59.27;100639.44;7280196;19;154366;-63
2022/09/03 12:29:31;;;;;;;;;;;;;;;23.46;59.10;100640.25;7277667;19;153189;-63
2022/09/03 12:32:05;;;;;;;;;;;;;;;23.45;59.10;100633.78;7280355;19;152910;-63
2022/09/03 12:34:32;;;;;;;;;;;;;;;23.48;58.45;100643.59;7275338;19;153920;-63
2022/09/03 12:36:59;;;;;;;;;;;;;;;23.48;58.45;100654.88;7283221;19;152555;-63
2022/09/03 12:39:26;;;;;;;;;;;;;;;23.44;58.42;100645.41;7276709;19;153740;-63
2022/09/03 12:42:18;;;;;;;;;;;;;;;23.42;57.99;100651.38;7292204;19;152499;-63
2022/09/03 12:44:45;;;;;;;;;;;;;;;23.39;58.27;100651.22;7286108;19;153374;-63
2022/09/03 12:47:18;;;;;;;;;;;;;;;23.39;58.36;100652.00;7285691;19;152648;-63
2022/09/03 12:50:09;;;;;;;;;;;;;;;23.40;58.26;100661.31;7279561;19;154179;-63